Time;durP1;ratioP1;P1;durP2;ratioP2;P2;SDS_P1;SDS_P2;PMS_P1;PMS_P2;Temp;Humidity;BMP_temperature;BMP_pressure;BME280_temperature;BME280_humidity;BME280_pressure;Samples;Min_cycle;Max_cycle;Signal;HPM_P1;HPM_P2
2022/05/17 00:01:19;;;;;;;8.45;3.00;;;;;;;14.02;98.08;101963.69;5098921;28;20111;-61
2022/05/17 00:03:44;;;;;;;10.05;3.22;;;;;;;14.02;98.46;101961.06;5095515;28;20055;-61
2022/05/17 00:06:10;;;;;;;6.35;2.60;;;;;;;14.02;98.21;101964.56;5100469;28;20091;-61
2022/05/17 00:08:35;;;;;;;6.63;3.20;;;;;;;14.02;98.37;101968.88;5100052;28;20039;-60
2022/05/17 00:11:01;;;;;;;7.45;2.70;;;;;;;14.03;98.67;101965.47;5099019;28;20861;-60
2022/05/17 00:13:26;;;;;;;4.93;3.13;;;;;;;13.99;98.86;101963.56;5098863;28;20024;-60
2022/05/17 00:15:52;;;;;;;7.35;3.05;;;;;;;13.95;98.92;101957.38;5098316;28;20096;-61
2022/05/17 00:18:19;;;;;;;9.05;3.75;;;;;;;13.95;98.84;101956.47;5100732;28;20376;-61
2022/05/17 00:20:44;;;;;;;7.80;3.50;;;;;;;13.93;99.35;101959.91;5102165;28;20032;-61
2022/05/17 00:23:12;;;;;;;5.15;3.35;;;;;;;13.94;98.78;101953.00;5097150;28;20024;-61
2022/05/17 00:25:38;;;;;;;6.55;3.15;;;;;;;13.89;99.01;101951.91;5099303;28;20055;-62
2022/05/17 00:28:04;;;;;;;8.40;3.40;;;;;;;13.83;99.39;101947.41;5099191;28;20038;-60
2022/05/17 00:30:29;;;;;;;8.32;3.00;;;;;;;13.81;99.76;101943.84;5101057;28;20463;-61
2022/05/17 00:32:54;;;;;;;9.68;4.15;;;;;;;13.79;99.76;101940.28;5098100;28;20016;-60
2022/05/17 00:35:20;;;;;;;11.90;4.13;;;;;;;13.78;99.56;101943.75;5095570;28;20047;-60
2022/05/17 00:37:45;;;;;;;7.28;3.58;;;;;;;13.77;99.97;101942.84;5098704;28;20471;-61
2022/05/17 00:40:11;;;;;;;8.45;3.45;;;;;;;13.76;99.33;101942.78;5097370;28;20380;-61
2022/05/17 00:42:37;;;;;;;6.70;3.30;;;;;;;13.72;100.00;101938.31;5098031;28;20027;-61
2022/05/17 00:45:03;;;;;;;7.88;3.47;;;;;;;13.68;100.00;101939.91;5099333;28;20042;-61
2022/05/17 00:47:51;;;;;;;4.40;2.88;;;;;;;13.63;100.00;101944.94;5097782;28;20019;-60
2022/05/17 00:50:29;;;;;;;9.90;3.97;;;;;;;13.62;100.00;101937.94;5098137;28;20035;-61
2022/05/17 00:52:59;;;;;;;8.63;4.05;;;;;;;13.61;100.00;101941.41;5097328;28;20028;-60
2022/05/17 00:55:32;;;;;;;5.60;3.33;;;;;;;13.62;100.00;101937.94;5098197;28;20431;-61
2022/05/17 00:58:14;;;;;;;5.45;4.18;;;;;;;13.62;100.00;101943.16;5095892;28;20797;-60
2022/05/17 01:00:47;;;;;;;6.82;3.97;;;;;;;13.64;100.00;101931.09;5099160;28;20372;-60
2022/05/17 01:03:16;;;;;;;6.18;4.30;;;;;;;13.66;100.00;101942.47;5095544;28;20577;-60
2022/05/17 01:05:51;;;;;;;7.03;3.95;;;;;;;13.68;100.00;101935.59;5100889;28;20043;-60
2022/05/17 01:08:18;;;;;;;9.85;5.18;;;;;;;13.68;100.00;101930.38;5098599;28;20177;-61
2022/05/17 01:10:43;;;;;;;9.85;5.13;;;;;;;13.66;100.00;101932.03;5093654;28;20024;-60
2022/05/17 01:15:53;;;;;;;9.95;5.75;;;;;;;13.64;100.00;101930.19;5099313;28;20042;-61
2022/05/17 01:18:19;;;;;;;9.38;5.88;;;;;;;13.59;100.00;101932.63;5101016;28;20027;-61
2022/05/17 01:20:44;;;;;;;8.20;5.78;;;;;;;13.58;100.00;101928.28;5108575;28;20212;-60
2022/05/17 01:23:09;;;;;;;10.15;6.28;;;;;;;13.54;100.00;101928.97;5099123;28;20468;-60
2022/05/17 01:25:35;;;;;;;9.10;6.68;;;;;;;13.53;100.00;101924.59;5102350;28;20038;-61
2022/05/17 01:28:00;;;;;;;9.75;6.80;;;;;;;13.50;100.00;101927.06;5099664;28;20433;-60
2022/05/17 01:30:27;;;;;;;9.63;6.63;;;;;;;13.45;100.00;101929.50;5099889;28;20032;-61
2022/05/17 01:32:53;;;;;;;9.90;6.88;;;;;;;13.43;100.00;101926.84;5105315;28;20081;-60
2022/05/17 01:35:19;;;;;;;7.43;6.50;;;;;;;13.42;100.00;101935.47;5100648;28;20055;-60
2022/05/17 01:37:46;;;;;;;9.07;6.18;;;;;;;13.42;100.00;101930.25;5105170;28;20027;-60
2022/05/17 01:40:12;;;;;;;8.30;5.25;;;;;;;13.42;100.00;101922.44;5101348;28;20036;-60
2022/05/17 01:42:38;;;;;;;9.15;5.63;;;;;;;13.42;100.00;101930.25;5099470;28;20020;-60
2022/05/17 01:45:05;;;;;;;9.63;6.70;;;;;;;13.44;100.00;101928.59;5102701;28;20032;-60
2022/05/17 01:47:30;;;;;;;8.27;6.18;;;;;;;13.47;100.00;101926.94;5102310;27;20036;-61
2022/05/17 01:49:56;;;;;;;8.45;5.97;;;;;;;13.51;100.00;101928.84;5102650;28;20456;-61
2022/05/17 01:52:21;;;;;;;6.55;5.68;;;;;;;13.55;100.00;101923.81;5101685;28;20031;-60
2022/05/17 01:54:47;;;;;;;9.55;6.18;;;;;;;13.59;100.00;101922.22;5101201;28;20315;-61
2022/05/17 01:57:12;;;;;;;11.45;6.38;;;;;;;13.62;100.00;101932.75;5099602;28;20028;-61
2022/05/17 01:59:37;;;;;;;9.23;6.13;;;;;;;13.65;100.00;101925.03;5102857;28;20815;-60
2022/05/17 02:02:03;;;;;;;8.00;5.43;;;;;;;13.69;100.00;101931.25;5108881;28;20039;-60
2022/05/17 02:04:28;;;;;;;8.13;6.00;;;;;;;13.69;100.00;101932.13;5104402;28;20463;-60
2022/05/17 02:06:54;;;;;;;8.85;6.07;;;;;;;13.70;100.00;101935.63;5099619;28;20028;-60
2022/05/17 02:09:19;;;;;;;7.60;5.70;;;;;;;13.72;100.00;101939.19;5095421;28;20024;-60
2022/05/17 02:11:45;;;;;;;8.68;5.22;;;;;;;13.73;100.00;101940.06;5104109;28;20030;-60
2022/05/17 02:14:10;;;;;;;8.25;4.97;;;;;;;13.73;100.00;101937.44;5102719;28;20019;-60
2022/05/17 02:16:36;;;;;;;9.63;5.75;;;;;;;13.75;100.00;101938.41;5100171;28;20058;-60
2022/05/17 02:19:03;;;;;;;9.13;4.97;;;;;;;13.75;100.00;101938.41;5101218;28;20023;-60
2022/05/17 02:21:28;;;;;;;10.55;5.10;;;;;;;13.76;100.00;101934.97;5101010;28;20020;-61
2022/05/17 02:23:53;;;;;;;7.82;5.18;;;;;;;13.77;100.00;101936.75;5100924;28;20032;-61
2022/05/17 02:26:19;;;;;;;10.43;4.82;;;;;;;13.78;100.00;101933.31;5103449;28;20032;-60
2022/05/17 02:28:44;;;;;;;9.48;4.47;;;;;;;13.78;100.00;101928.97;5099967;28;20387;-61
2022/05/17 02:31:12;;;;;;;8.15;5.05;;;;;;;13.78;100.00;101938.53;5102102;28;20031;-61
2022/05/17 02:33:37;;;;;;;10.38;5.40;;;;;;;13.79;100.00;101929.88;5101207;28;20464;-61
2022/05/17 02:36:03;;;;;;;8.98;4.53;;;;;;;13.81;100.00;101933.44;5101162;28;20198;-60
2022/05/17 02:38:28;;;;;;;7.75;4.25;;;;;;;13.83;100.00;101941.28;5100692;28;20047;-61
2022/05/17 02:40:53;;;;;;;9.20;4.70;;;;;;;13.85;100.00;101935.28;5099985;28;20026;-60
2022/05/17 02:43:19;;;;;;;5.05;4.07;;;;;;;13.85;100.00;101935.28;5103242;28;20064;-61
2022/05/17 02:45:44;;;;;;;8.25;4.50;;;;;;;13.87;100.00;101944.06;5102923;28;20448;-61
2022/05/17 02:48:09;;;;;;;6.25;4.10;;;;;;;13.88;100.00;101939.75;5102249;27;20023;-60
2022/05/17 02:50:35;;;;;;;6.22;3.70;;;;;;;13.88;100.00;101937.13;5099345;28;20526;-60
2022/05/17 02:53:00;;;;;;;8.70;4.35;;;;;;;13.88;100.00;101951.06;5104509;28;20125;-61
2022/05/17 02:55:25;;;;;;;7.10;4.25;;;;;;;13.87;100.00;101949.25;5098780;27;20452;-60
2022/05/17 02:57:51;;;;;;;8.45;4.30;;;;;;;13.86;100.00;101950.09;5100529;28;20391;-61
2022/05/17 03:00:17;;;;;;;8.00;4.65;;;;;;;13.85;100.00;101940.50;5100824;28;20059;-60
2022/05/17 03:02:43;;;;;;;7.20;4.90;;;;;;;13.82;100.00;101940.41;5097837;28;20024;-60
2022/05/17 03:05:10;;;;;;;6.80;4.45;;;;;;;13.82;100.00;101956.03;5096124;28;20031;-60
2022/05/17 03:07:36;;;;;;;8.02;4.80;;;;;;;13.83;100.00;101954.31;5100244;27;20023;-60
2022/05/17 03:10:02;;;;;;;8.98;4.32;;;;;;;13.79;100.00;101951.63;5101105;28;20023;-60
2022/05/17 03:12:27;;;;;;;6.07;4.88;;;;;;;13.76;100.00;101948.00;5098640;28;20080;-61
2022/05/17 03:14:53;;;;;;;7.28;4.70;;;;;;;13.72;100.00;101946.13;5096956;28;20457;-60
2022/05/17 03:17:18;;;;;;;5.05;3.97;;;;;;;13.69;100.00;101957.28;5100733;28;20023;-60
2022/05/17 03:19:44;;;;;;;8.05;4.10;;;;;;;13.65;100.00;101958.88;5098808;28;20076;-61
2022/05/17 03:22:10;;;;;;;5.35;4.22;;;;;;;13.62;100.00;101950.97;5102210;28;20016;-60
2022/05/17 03:24:39;;;;;;;6.25;4.20;;;;;;;13.59;100.00;101957.78;5095477;28;20019;-60
2022/05/17 03:27:05;;;;;;;7.97;4.00;;;;;;;13.53;100.00;101954.13;5104697;28;20057;-60
2022/05/17 03:29:31;;;;;;;6.35;4.20;;;;;;;13.49;100.00;101949.59;5101601;28;20020;-60
2022/05/17 03:31:56;;;;;;;7.30;4.35;;;;;;;13.46;100.00;101952.09;5102364;28;20387;-59
2022/05/17 03:34:22;;;;;;;9.23;4.43;;;;;;;13.42;100.00;101945.88;5099831;28;20044;-60
2022/05/17 03:36:47;;;;;;;7.75;3.97;;;;;;;13.41;100.00;101957.13;5095486;28;20024;-60
2022/05/17 03:39:13;;;;;;;6.25;3.90;;;;;;;13.40;100.00;101954.47;5101709;28;20124;-61
2022/05/17 03:41:38;;;;;;;8.65;4.40;;;;;;;13.39;100.00;101957.88;5097122;28;20046;-61
2022/05/17 03:44:04;;;;;;;9.20;4.22;;;;;;;13.38;100.00;101954.41;5096673;28;20054;-60
2022/05/17 03:46:29;;;;;;;6.50;4.00;;;;;;;13.37;100.00;101957.84;5102707;28;20376;-60
2022/05/17 03:48:59;;;;;;;6.30;3.75;;;;;;;13.35;100.00;101949.06;5106322;28;20027;-60
2022/05/17 03:51:24;;;;;;;6.90;3.78;;;;;;;13.35;100.00;101953.41;5101991;28;20035;-61
2022/05/17 03:53:53;;;;;;;5.95;4.30;;;;;;;13.31;100.00;101953.28;5100376;28;20528;-60
2022/05/17 03:56:18;;;;;;;9.23;4.22;;;;;;;13.30;100.00;101956.72;5101942;28;20102;-61
2022/05/17 03:58:44;;;;;;;9.68;4.43;;;;;;;13.30;100.00;101950.59;5098385;28;20033;-61
2022/05/17 04:01:12;;;;;;;6.85;4.65;;;;;;;13.30;100.00;101950.59;5097428;28;20027;-60
2022/05/17 04:03:37;;;;;;;9.63;4.45;;;;;;;13.30;100.00;101955.81;5100127;28;20105;-60
2022/05/17 04:06:03;;;;;;;6.03;4.00;;;;;;;13.31;100.00;101952.41;5094185;28;20036;-60
2022/05/17 04:08:29;;;;;;;8.07;4.70;;;;;;;13.33;100.00;101961.13;5088026;28;20054;-61
2022/05/17 04:10:55;;;;;;;9.25;4.50;;;;;;;13.33;100.00;101955.94;5088166;28;20528;-61
2022/05/17 04:13:20;;;;;;;8.63;4.82;;;;;;;13.33;100.00;101958.53;5088179;28;20308;-60
2022/05/17 04:15:45;;;;;;;5.82;4.28;;;;;;;13.33;100.00;101962.03;5088264;28;20364;-60
2022/05/17 04:18:11;;;;;;;7.55;4.40;;;;;;;13.37;100.00;101963.03;5087922;28;20054;-60
2022/05/17 04:20:36;;;;;;;7.22;4.55;;;;;;;13.39;100.00;101966.59;5086691;28;20028;-60
2022/05/17 04:23:02;;;;;;;7.60;4.47;;;;;;;13.42;100.00;101965.84;5087575;28;20020;-61
2022/05/17 04:25:27;;;;;;;9.95;4.95;;;;;;;13.45;100.00;101969.41;5107430;28;20028;-61
2022/05/17 04:27:54;;;;;;;7.95;4.65;;;;;;;13.47;100.00;101971.22;5107472;28;20031;-61
2022/05/17 04:30:20;;;;;;;6.63;5.10;;;;;;;13.51;100.00;101976.56;5098542;28;21230;-60
2022/05/17 04:32:47;;;;;;;6.05;4.97;;;;;;;13.55;100.00;101973.31;5099637;28;20053;-61
2022/05/17 04:35:13;;;;;;;6.20;4.80;;;;;;;13.58;100.00;101980.34;5094576;28;20051;-61
2022/05/17 04:37:39;;;;;;;9.38;4.65;;;;;;;13.62;100.00;101976.13;5101686;28;20035;-60
2022/05/17 04:40:08;;;;;;;10.15;4.72;;;;;;;13.64;100.00;101977.97;5088976;28;20062;-60
2022/05/17 04:42:35;;;;;;;7.10;4.63;;;;;;;13.69;100.00;101980.72;5087080;28;20054;-60
2022/05/17 04:45:00;;;;;;;9.20;4.45;;;;;;;13.74;100.00;101978.31;5087567;28;20119;-60
2022/05/17 04:47:25;;;;;;;8.13;4.97;;;;;;;13.76;100.00;101977.53;5087725;28;20165;-61
2022/05/17 04:49:51;;;;;;;9.00;5.30;;;;;;;13.78;100.00;101980.22;5087338;28;20062;-61
2022/05/17 04:52:16;;;;;;;7.97;5.30;;;;;;;13.81;100.00;101985.53;5098524;28;20023;-61
2022/05/17 04:54:43;;;;;;;7.95;4.82;;;;;;;13.85;100.00;101976.09;5089104;28;20024;-61
2022/05/17 04:57:08;;;;;;;9.30;5.30;;;;;;;13.87;100.00;101988.34;5086887;28;20364;-60
2022/05/17 04:59:33;;;;;;;8.48;4.75;;;;;;;13.91;100.00;101977.22;5103466;28;20084;-60
2022/05/17 05:01:58;;;;;;;9.77;5.63;;;;;;;13.96;100.00;101979.97;5107227;28;20039;-60
2022/05/17 05:04:24;;;;;;;8.25;5.78;;;;;;;14.00;100.00;101986.19;5106889;28;20076;-60
2022/05/17 05:06:49;;;;;;;6.55;4.60;;;;;;;14.06;100.00;101991.63;5107392;28;20455;-61
2022/05/17 05:09:15;;;;;;;6.88;5.03;;;;;;;14.12;100.00;101989.22;5107022;28;20032;-61
2022/05/17 05:11:40;;;;;;;8.90;5.88;;;;;;;14.19;100.00;101992.06;5106818;28;20084;-60
2022/05/17 05:14:06;;;;;;;10.57;6.00;;;;;;;14.27;100.00;101995.81;5106783;28;20535;-61
2022/05/17 05:16:32;;;;;;;11.43;6.22;;;;;;;14.35;100.00;101994.38;5107408;28;20032;-60
2022/05/17 05:18:57;;;;;;;9.52;5.70;;;;;;;14.40;100.00;101998.03;5106790;28;20486;-60
2022/05/17 05:21:23;;;;;;;10.60;6.40;;;;;;;14.46;100.00;101996.47;5107037;28;20032;-60
2022/05/17 05:23:48;;;;;;;11.07;6.25;;;;;;;14.50;100.00;102001.84;5106684;28;20361;-60
2022/05/17 05:26:14;;;;;;;7.68;5.88;;;;;;;14.52;100.00;102005.38;5107057;28;20093;-61
2022/05/17 05:28:41;;;;;;;10.93;6.20;;;;;;;14.53;100.00;102003.69;5107081;28;20020;-61
2022/05/17 05:31:07;;;;;;;10.10;6.55;;;;;;;14.55;100.00;102012.44;5106972;28;20031;-61
2022/05/17 05:33:34;;;;;;;12.35;6.40;;;;;;;14.58;100.00;102002.09;5106762;28;20027;-61
2022/05/17 05:36:00;;;;;;;9.55;6.72;;;;;;;14.63;100.00;102003.16;5106633;28;20392;-61
2022/05/17 05:38:25;;;;;;;10.13;6.55;;;;;;;14.68;100.00;102008.50;5106013;28;20118;-60
2022/05/17 05:40:51;;;;;;;12.93;7.47;;;;;;;14.73;100.00;102021.72;5106724;28;20452;-60
2022/05/17 05:43:17;;;;;;;12.93;6.65;;;;;;;14.75;100.00;102014.84;5106395;28;20400;-60
2022/05/17 05:45:42;;;;;;;9.38;6.97;;;;;;;14.79;100.00;102027.13;5106952;28;20110;-60
2022/05/17 05:48:08;;;;;;;12.77;6.22;;;;;;;14.83;100.00;102018.63;5105941;28;20115;-61
2022/05/17 05:50:34;;;;;;;14.13;6.43;;;;;;;14.88;100.00;102027.47;5105576;28;20096;-60
2022/05/17 05:53:06;;;;;;;11.75;6.82;;;;;;;14.96;100.00;102032.06;5105206;28;20024;-61
2022/05/17 05:55:32;;;;;;;10.88;7.13;;;;;;;15.03;100.00;102035.75;5106469;28;20015;-61
2022/05/17 05:57:58;;;;;;;11.07;6.60;;;;;;;15.07;100.00;102038.53;5106405;28;20068;-61
2022/05/17 06:00:24;;;;;;;10.18;6.70;;;;;;;15.10;100.00;102030.78;5106348;28;20027;-61
2022/05/17 06:02:50;;;;;;;12.80;6.20;;;;;;;15.16;100.00;102039.66;5104488;28;20027;-61
2022/05/17 06:05:16;;;;;;;9.82;6.50;;;;;;;15.20;100.00;102033.69;5108484;28;20265;-61
2022/05/17 06:07:41;;;;;;;9.98;5.78;;;;;;;15.24;100.00;102032.94;5109601;28;20322;-60
2022/05/17 06:10:08;;;;;;;12.45;6.13;;;;;;;15.27;100.00;102029.56;5110076;28;20081;-60
2022/05/17 06:12:33;;;;;;;11.10;5.45;;;;;;;15.30;100.00;102027.94;5109719;28;20451;-60
2022/05/17 06:14:58;;;;;;;8.68;5.80;;;;;;;15.31;100.00;102031.44;5109885;28;20089;-60
2022/05/17 06:17:27;;;;;;;11.77;6.50;;;;;;;15.33;100.00;102030.63;5110554;28;20467;-60
2022/05/17 06:19:57;;;;;;;14.70;6.20;;;;;;;15.34;100.00;102029.78;5109609;28;20039;-60
2022/05/17 06:22:23;;;;;;;11.85;6.50;;;;;;;15.38;100.00;102033.38;5110090;28;20107;-61
2022/05/17 06:24:49;;;;;;;12.45;6.47;;;;;;;15.41;100.00;102035.19;5109795;28;20066;-60
2022/05/17 06:27:14;;;;;;;13.88;7.18;;;;;;;15.44;100.00;102032.69;5110346;28;20219;-61
2022/05/17 06:29:39;;;;;;;12.20;5.70;;;;;;;15.47;100.00;102038.03;5109550;28;20038;-61
2022/05/17 06:32:09;;;;;;;16.90;6.45;;;;;;;15.49;100.00;102041.53;5110090;28;20032;-61
2022/05/17 06:34:34;;;;;;;12.95;6.28;;;;;;;15.51;100.00;102044.22;5109743;28;20100;-60
2022/05/17 06:37:00;;;;;;;12.48;5.80;;;;;;;15.52;100.00;102041.66;5108660;28;20273;-60
2022/05/17 06:39:25;;;;;;;16.27;6.05;;;;;;;15.53;100.00;102046.03;5109119;28;20023;-60
2022/05/17 06:41:51;;;;;;;11.85;6.03;;;;;;;15.54;100.00;102044.31;5109820;28;20028;-61
2022/05/17 06:44:16;;;;;;;13.65;6.55;;;;;;;15.55;100.00;102041.75;5090003;28;20039;-60
2022/05/17 06:46:41;;;;;;;17.70;7.18;;;;;;;15.59;100.00;102045.34;5089684;28;20088;-60
2022/05/17 06:49:06;;;;;;;15.13;6.00;;;;;;;15.62;100.00;102068.94;5090150;28;20024;-60
2022/05/17 06:51:35;;;;;;;14.05;6.32;;;;;;;15.63;100.00;102069.81;5089748;28;20392;-60
2022/05/17 06:54:00;;;;;;;12.52;5.85;;;;;;;15.65;100.00;102062.94;5089261;28;20024;-60
2022/05/17 06:56:25;;;;;;;13.38;6.18;;;;;;;15.68;100.00;102069.13;5089700;28;20039;-61
2022/05/17 06:58:51;;;;;;;10.82;6.38;;;;;;;15.70;100.00;102063.94;5089612;28;20031;-60
2022/05/17 07:01:16;;;;;;;12.90;6.75;;;;;;;15.72;100.00;102070.97;5089576;28;20024;-60
2022/05/17 07:03:42;;;;;;;13.02;6.15;;;;;;;15.73;100.00;102069.25;5105888;28;20039;-60
2022/05/17 07:06:08;;;;;;;13.98;5.80;;;;;;;15.75;100.00;102064.06;5091864;27;20028;-60
2022/05/17 07:08:33;;;;;;;13.95;6.30;;;;;;;15.75;100.00;102064.97;5089537;28;20035;-60
2022/05/17 07:13:42;;;;;;;16.65;7.13;;;;;;;15.77;100.00;102068.53;5089406;28;20093;-61
2022/05/17 07:16:07;;;;;;;12.85;6.63;;;;;;;15.79;100.00;102064.22;5088425;28;20028;-60
2022/05/17 07:18:33;;;;;;;19.50;7.32;;;;;;;15.82;100.00;102072.16;5089215;28;20032;-61
2022/05/17 07:21:00;;;;;;;10.80;6.60;;;;;;;15.84;100.00;102070.47;5089633;28;20034;-60
2022/05/17 07:23:26;;;;;;;12.13;6.45;;;;;;;15.87;100.00;102079.22;5089112;28;20451;-61
2022/05/17 07:25:53;;;;;;;14.27;6.65;;;;;;;15.87;100.00;102076.59;5089271;28;20051;-61
2022/05/17 07:28:22;;;;;;;13.77;6.60;;;;;;;15.87;100.00;102066.16;5088594;28;20289;-61
2022/05/17 07:30:48;;;;;;;17.65;6.75;;;;;;;15.89;100.00;102067.09;5089095;28;20027;-60
2022/05/17 07:33:14;;;;;;;13.63;6.82;;;;;;;15.94;100.00;102075.94;5088738;28;20383;-60
2022/05/17 07:35:40;;;;;;;15.93;7.40;;;;;;;15.96;100.00;102079.50;5088771;28;20048;-60
2022/05/17 07:38:06;;;;;;;14.20;6.97;;;;;;;15.97;100.00;102084.78;5086605;28;20031;-61
2022/05/17 07:40:32;;;;;;;15.57;7.90;;;;;;;15.98;100.00;102083.06;5089157;28;20026;-60
2022/05/17 07:42:57;;;;;;;15.63;7.80;;;;;;;16.02;100.00;102079.72;5088759;28;20475;-61
2022/05/17 07:45:23;;;;;;;15.40;8.15;;;;;;;16.01;100.00;102067.47;5088244;28;20040;-61
2022/05/17 07:47:48;;;;;;;15.18;8.95;;;;;;;16.02;100.00;102063.16;5088669;28;20275;-60
2022/05/17 07:50:14;;;;;;;18.80;8.70;;;;;;;16.02;100.00;102057.91;5088747;28;20055;-61
2022/05/17 07:52:41;;;;;;;13.40;8.75;;;;;;;15.97;100.00;102066.47;5088788;28;20461;-60
2022/05/17 07:55:07;;;;;;;14.95;10.25;;;;;;;15.78;100.00;102067.66;5088661;28;20020;-61
2022/05/17 07:57:33;;;;;;;16.42;11.02;;;;;;;15.69;100.00;102076.13;5089270;28;20050;-60
2022/05/17 07:59:58;;;;;;;15.30;10.65;;;;;;;15.75;100.00;102078.03;5088279;28;20456;-60
2022/05/17 08:02:23;;;;;;;14.57;10.63;;;;;;;15.82;100.00;102082.59;5088550;28;20464;-60
2022/05/17 08:04:49;;;;;;;15.07;11.30;;;;;;;15.87;100.00;102085.34;5088273;28;20032;-60
2022/05/17 08:07:14;;;;;;;14.13;11.32;;;;;;;15.94;100.00;102086.41;5088464;28;20035;-61
2022/05/17 08:09:40;;;;;;;16.45;11.65;;;;;;;15.96;100.00;102084.72;5088611;28;20027;-60
2022/05/17 08:12:09;;;;;;;17.38;11.65;;;;;;;16.02;100.00;102084.06;5088101;28;20023;-60
2022/05/17 08:14:35;;;;;;;16.60;11.40;;;;;;;16.06;100.00;102081.56;5088225;28;20024;-61
2022/05/17 08:17:02;;;;;;;16.75;11.05;;;;;;;16.13;100.00;102082.66;5086762;28;20119;-61
2022/05/17 08:19:27;;;;;;;13.13;10.52;;;;;;;16.18;100.00;102091.53;5087935;28;20035;-60
2022/05/17 08:21:52;;;;;;;13.48;10.15;;;;;;;16.23;100.00;102085.50;5087439;28;20031;-60
2022/05/17 08:24:18;;;;;;;13.18;9.45;;;;;;;16.20;100.00;102087.22;5087760;28;20058;-60
2022/05/17 08:29:27;;;;;;;15.73;9.52;;;;;;;16.19;100.00;102087.19;5101086;28;20132;-61
2022/05/17 08:34:36;;;;;;;12.43;8.70;;;;;;;16.28;100.00;102087.41;5107385;28;20413;-60
2022/05/17 08:37:01;;;;;;;14.35;9.57;;;;;;;16.33;100.00;102090.19;5107699;28;20110;-61
2022/05/17 08:39:27;;;;;;;12.68;8.98;;;;;;;16.38;100.00;102085.06;5106723;28;20019;-60
2022/05/17 08:41:57;;;;;;;12.32;9.60;;;;;;;16.35;100.00;102085.00;5107249;28;20034;-60
2022/05/17 08:44:39;;;;;;;15.13;10.38;;;;;;;16.32;100.00;102078.81;5107500;28;20433;-60
2022/05/17 08:47:16;;;;;;;12.27;9.30;;;;;;;16.39;100.00;102085.09;5107214;28;20088;-61
2022/05/17 08:49:55;;;;;;;11.95;8.65;;;;;;;16.43;100.00;102080.84;5106595;28;20118;-61
2022/05/17 08:52:23;;;;;;;12.18;8.82;;;;;;;16.51;100.00;102084.56;5107592;27;20035;-61
2022/05/17 08:54:59;;;;;;;13.23;10.50;;;;;;;16.58;100.00;102083.00;5107998;28;20565;-61
2022/05/17 08:57:38;;;;;;;16.55;9.75;;;;;;;16.64;100.00;102084.91;5107218;28;20027;-61
2022/05/17 09:00:09;;;;;;;13.43;9.40;;;;;;;16.67;100.00;102084.97;5107308;28;20020;-61
2022/05/17 09:02:56;;;;;;;14.63;9.15;;;;;;;16.71;100.00;102081.59;5107759;28;20553;-60
2022/05/17 09:05:30;;;;;;;14.38;9.43;;;;;;;16.74;100.00;102080.78;5107420;28;20047;-61
2022/05/17 09:08:24;;;;;;;10.82;9.65;;;;;;;16.67;100.00;102080.63;5107321;28;20024;-61
2022/05/17 09:10:56;;;;;;;14.00;9.48;;;;;;;16.57;100.00;102073.38;5106507;28;20499;-61
2022/05/17 09:13:59;;;;;;;14.35;10.38;;;;;;;16.62;100.00;102070.88;5107114;28;20679;-61
2022/05/17 09:16:27;;;;;;;16.27;10.68;;;;;;;16.68;100.00;102073.66;5106754;28;20084;-61
2022/05/17 09:18:53;;;;;;;17.98;11.73;;;;;;;16.74;100.00;102068.59;5107087;28;20039;-60
2022/05/17 09:21:28;;;;;;;17.52;10.68;;;;;;;16.86;100.00;102070.63;5106080;28;20024;-61
2022/05/17 09:23:54;;;;;;;13.80;9.52;;;;;;;16.99;100.00;102066.59;5107228;28;20663;-60
2022/05/17 09:26:20;;;;;;;12.65;9.38;;;;;;;17.10;100.00;102069.50;5107119;28;20054;-61
2022/05/17 09:29:00;;;;;;;10.73;8.95;;;;;;;17.14;100.00;102062.63;5106903;28;20446;-61
2022/05/17 09:31:30;;;;;;;12.48;9.57;;;;;;;17.28;100.00;102063.84;5106635;28;20034;-61
2022/05/17 09:33:57;;;;;;;11.38;8.70;;;;;;;17.38;100.00;102062.28;5103530;28;20125;-61
2022/05/17 09:36:28;;;;;;;13.10;7.95;;;;;;;17.42;100.00;102058.00;5087543;28;20464;-61
2022/05/17 09:38:54;;;;;;;;;;;;;;;17.46;100.00;102052.00;5088129;28;20185;-61
2022/05/17 09:41:27;;;;;;;11.85;8.10;;;;;;;17.56;100.00;102042.59;5090883;28;20371;-61
2022/05/17 09:44:01;;;;;;;12.65;7.82;;;;;;;17.62;100.00;102048.00;5091113;28;20035;-60
2022/05/17 09:46:43;;;;;;;11.13;7.60;;;;;;;17.68;100.00;102052.47;5091083;28;20031;-61
2022/05/17 09:55:21;;;;;;;6.60;5.20;;;;;;;18.30;97.93;102041.47;5110683;28;20085;-61
2022/05/17 09:58:12;;;;;;;10.02;5.35;;;;;;;18.63;96.36;102040.34;5110464;28;20027;-61
2022/05/17 10:00:51;;;;;;;7.38;5.35;;;;;;;18.84;93.22;102037.19;5110481;28;20053;-61
2022/05/17 10:03:19;;;;;;;10.68;5.47;;;;;;;18.99;89.71;102035.66;5110475;28;20028;-60
2022/05/17 10:05:48;;;;;;;10.80;7.63;;;;;;;19.11;88.01;102029.72;5111062;28;20081;-61
2022/05/17 10:08:13;;;;;;;8.63;5.63;;;;;;;19.28;88.19;102029.13;5110451;27;20106;-61
2022/05/17 10:10:44;;;;;;;9.98;6.25;;;;;;;19.35;86.14;102027.47;5110350;28;20106;-60
2022/05/17 10:13:31;;;;;;;7.82;6.20;;;;;;;19.55;87.33;102022.47;5110463;28;20099;-61
2022/05/17 10:16:13;;;;;;;10.00;6.72;;;;;;;19.83;86.23;102012.31;5109725;28;20031;-61
2022/05/17 10:19:08;;;;;;;12.77;8.00;;;;;;;19.88;83.24;102013.22;5103387;28;20023;-61
2022/05/17 10:21:52;;;;;;;12.55;8.07;;;;;;;19.99;80.27;102009.84;5091186;28;20039;-61
2022/05/17 10:24:40;;;;;;;12.90;7.85;;;;;;;20.12;79.89;102001.25;5109348;28;20038;-62
2022/05/17 10:27:15;;;;;;;11.75;7.72;;;;;;;20.40;80.81;102006.78;5102190;28;20027;-61
2022/05/17 10:29:45;;;;;;;10.88;8.32;;;;;;;20.31;80.04;102009.31;5109957;28;20471;-61
2022/05/17 10:32:39;;;;;;;11.20;8.65;;;;;;;20.19;78.81;102010.09;5109727;28;20043;-61
2022/05/17 10:35:31;;;;;;;12.35;9.30;;;;;;;20.24;80.43;102002.22;5109428;28;20402;-61
2022/05/17 10:38:13;;;;;;;11.82;8.90;;;;;;;20.22;80.13;101999.59;5109658;28;20094;-61
2022/05/17 10:40:43;;;;;;;8.82;7.35;;;;;;;20.26;77.84;102001.41;5109241;28;20170;-62
2022/05/17 10:43:15;;;;;;;14.15;8.40;;;;;;;20.30;75.68;102001.41;5109516;28;20019;-62
2022/05/17 10:45:41;;;;;;;15.63;9.27;;;;;;;20.21;77.10;101999.59;5109366;28;20031;-62
2022/05/17 10:48:23;;;;;;;12.48;9.20;;;;;;;20.28;75.59;102004.94;5109957;28;20448;-61
2022/05/17 10:50:58;;;;;;;10.95;9.27;;;;;;;20.31;76.51;101997.94;5088657;28;20123;-62
2022/05/17 10:53:51;;;;;;;13.10;9.27;;;;;;;20.46;76.53;102002.44;5090026;28;20102;-61
2022/05/17 10:56:59;;;;;;;10.90;7.90;;;;;;;20.58;75.26;101994.66;5089966;28;20035;-61
2022/05/17 11:00:09;;;;;;;11.07;8.85;;;;;;;20.76;75.27;102000.94;5107089;28;20023;-62
2022/05/17 11:03:12;;;;;;;11.68;8.13;;;;;;;20.94;75.19;101992.31;5109302;28;20027;-62
2022/05/17 11:05:59;;;;;;;10.18;6.88;;;;;;;21.17;75.14;101991.59;5109603;28;20142;-61
2022/05/17 11:08:40;;;;;;;8.18;6.70;;;;;;;21.43;74.96;101996.13;5109430;27;20475;-61
2022/05/17 11:11:23;;;;;;;11.20;6.70;;;;;;;21.75;74.10;101990.97;5109122;28;20028;-61
2022/05/17 11:14:04;;;;;;;9.85;6.30;;;;;;;21.79;68.40;101987.44;5109244;28;20019;-61
2022/05/17 11:16:56;;;;;;;8.25;6.03;;;;;;;21.97;68.41;101978.75;5109259;28;20066;-61
2022/05/17 11:19:25;;;;;;;7.95;4.93;;;;;;;22.14;66.03;101975.25;5109008;28;20038;-61
2022/05/17 11:22:30;;;;;;;5.43;4.93;;;;;;;22.43;68.48;101969.13;5108289;28;20391;-62
2022/05/17 11:25:36;;;;;;;7.72;4.43;;;;;;;22.59;65.73;101966.47;5088951;28;20048;-61
2022/05/17 11:28:36;;;;;;;4.82;3.75;;;;;;;22.89;65.23;101964.69;5105342;28;20552;-61
2022/05/17 11:31:11;;;;;;;6.57;3.30;;;;;;;23.11;62.93;101959.38;5108901;28;20031;-62
2022/05/17 11:33:41;;;;;;;7.65;4.28;;;;;;;23.20;62.77;101958.47;5108485;28;20019;-61
2022/05/17 11:36:13;;;;;;;4.72;3.50;;;;;;;23.38;62.61;101953.09;5108608;28;20138;-62
2022/05/17 11:38:48;;;;;;;7.22;3.25;;;;;;;23.44;60.58;101941.63;5108891;28;20383;-61
2022/05/17 11:41:18;;;;;;;5.20;2.90;;;;;;;23.60;60.62;101945.06;5108424;28;20031;-61